createdAt,value
2018-06-23T00:02:14.321Z,99030.61
2018-06-23T00:04:46.393Z,99028.80
2018-06-23T00:07:16.640Z,99031.78
2018-06-23T00:09:46.872Z,99025.66
2018-06-23T00:12:20.009Z,99029.17
2018-06-23T00:14:50.538Z,99026.77
2018-06-23T00:17:21.045Z,99005.65
2018-06-23T00:19:51.773Z,99029.16
2018-06-23T00:22:21.859Z,99026.27
2018-06-23T00:24:52.269Z,99029.12
2018-06-23T00:27:22.477Z,99025.66
2018-06-23T00:29:54.042Z,99028.08
2018-06-23T00:32:24.446Z,99037.28
2018-06-23T00:34:54.551Z,99036.91
2018-06-23T00:37:24.630Z,99033.05
2018-06-23T00:39:54.725Z,99027.55
2018-06-23T00:42:34.462Z,99023.30
2018-06-23T00:45:04.819Z,99024.70
2018-06-23T00:47:53.623Z,99024.25
2018-06-23T00:50:24.437Z,99027.49
2018-06-23T00:52:54.496Z,99029.66
2018-06-23T00:55:24.618Z,99025.55
2018-06-23T00:57:54.858Z,99022.75
2018-06-23T01:00:25.550Z,99020.73
2018-06-23T01:03:01.601Z,99021.73
2018-06-23T01:05:32.221Z,99024.34
2018-06-23T01:08:06.492Z,99016.86
2018-06-23T01:10:53.637Z,99019.80
2018-06-23T01:13:29.930Z,99017.13
2018-06-23T01:16:00.914Z,99024.73
2018-06-23T01:18:33.433Z,99018.06
2018-06-23T01:21:04.332Z,99011.05
2018-06-23T01:23:34.600Z,99009.32
2018-06-23T01:26:05.187Z,99007.34
2018-06-23T01:28:35.717Z,99013.29
2018-06-23T01:31:05.936Z,99011.61
2018-06-23T01:33:36.104Z,99005.53
2018-06-23T01:36:07.418Z,99005.74
2018-06-23T01:38:38.386Z,99002.68
2018-06-23T01:41:09.641Z,99000.83
2018-06-23T01:43:40.734Z,98997.23
2018-06-23T01:46:11.014Z,99001.04
2018-06-23T01:48:41.532Z,99002.34
2018-06-23T01:51:12.420Z,98999.45
2018-06-23T01:53:43.859Z,99001.83
2018-06-23T01:56:14.146Z,99006.44
2018-06-23T01:58:44.235Z,99003.59
2018-06-23T02:01:14.538Z,99005.88
2018-06-23T02:03:45.965Z,99002.33
2018-06-23T02:06:18.205Z,99000.05
2018-06-23T02:08:50.692Z,98999.92
2018-06-23T02:11:21.284Z,98994.63
2018-06-23T02:13:56.961Z,98991.52
2018-06-23T02:16:32.200Z,98992.34
2018-06-23T02:19:07.306Z,98991.11
2018-06-23T02:21:42.727Z,98992.41
2018-06-23T02:24:17.764Z,98989.02
2018-06-23T02:26:53.091Z,98996.35
2018-06-23T02:32:30.817Z,98991.90
2018-06-23T02:35:05.861Z,98992.48
2018-06-23T02:37:39.971Z,98996.98
2018-06-23T02:40:11.133Z,99001.83
2018-06-23T02:42:41.284Z,99000.04
2018-06-23T02:45:11.341Z,99008.02
2018-06-23T02:47:41.537Z,99006.38
2018-06-23T02:50:11.577Z,99006.24
2018-06-23T02:52:41.701Z,99007.42
2018-06-23T02:55:11.832Z,99008.73
2018-06-23T02:57:42.001Z,99013.23
2018-06-23T03:00:13.695Z,99008.79
2018-06-23T03:02:44.796Z,99012.52
2018-06-23T03:05:15.937Z,99016.95
2018-06-23T03:07:45.956Z,99011.13
2018-06-23T03:10:16.064Z,99017.66
2018-06-23T03:12:46.788Z,99023.88
2018-06-23T03:15:16.926Z,99032.29
2018-06-23T03:17:47.040Z,99028.18
2018-06-23T03:20:17.216Z,99029.25
2018-06-23T03:22:47.377Z,99036.23
2018-06-23T03:25:17.688Z,99035.09
2018-06-23T03:27:47.807Z,99038.64
2018-06-23T03:30:18.044Z,99034.13
2018-06-23T03:32:48.286Z,99032.91
2018-06-23T03:35:18.537Z,99039.03
2018-06-23T03:37:48.917Z,99039.03
2018-06-23T03:40:18.976Z,99036.53
2018-06-23T03:42:49.127Z,99038.83
2018-06-23T03:45:35.789Z,99036.14
2018-06-23T03:48:06.151Z,99039.25
2018-06-23T03:50:38.056Z,99037.70
2018-06-23T03:53:08.182Z,99035.67
2018-06-23T03:55:40.553Z,99033.14
2018-06-23T03:58:14.905Z,99028.69
2018-06-23T04:00:50.259Z,99023.84
2018-06-23T04:03:21.065Z,99024.39
2018-06-23T04:05:51.161Z,99023.04
2018-06-23T04:08:21.218Z,99024.02
2018-06-23T04:10:51.301Z,99019.75
2018-06-23T04:13:22.082Z,99016.13
2018-06-23T04:15:52.219Z,99019.30
2018-06-23T04:18:22.546Z,99018.25
2018-06-23T04:20:54.444Z,99019.55
2018-06-23T04:23:27.425Z,99028.06
2018-06-23T04:25:58.474Z,99031.85
2018-06-23T04:28:29.488Z,99031.13
2018-06-23T04:31:01.109Z,99028.44
2018-06-23T04:33:32.757Z,99008.86
2018-06-23T04:36:06.772Z,99033.94
2018-06-23T04:38:37.280Z,99038.25
2018-06-23T04:41:08.700Z,99050.38
2018-06-23T04:43:53.749Z,99048.17
2018-06-23T04:46:26.971Z,99046.33
2018-06-23T04:48:57.600Z,99047.40
2018-06-23T04:51:28.499Z,99053.45
2018-06-23T04:53:58.972Z,99054.51
2018-06-23T04:56:29.678Z,99051.25
2018-06-23T04:59:00.024Z,99054.98
2018-06-23T05:01:30.496Z,99055.09
2018-06-23T05:04:00.673Z,99055.11
2018-06-23T05:06:32.034Z,99056.22
2018-06-23T05:09:04.685Z,99060.27
2018-06-23T05:11:35.369Z,99068.87
2018-06-23T05:14:06.363Z,99067.30
2018-06-23T05:16:38.482Z,99063.33
2018-06-23T05:19:12.016Z,99068.73
2018-06-23T05:21:42.494Z,99070.05
2018-06-23T05:24:18.193Z,99074.56
2018-06-23T05:26:52.274Z,99069.70
2018-06-23T05:29:28.020Z,99073.77
2018-06-23T05:31:58.344Z,99068.14
2018-06-23T05:34:29.792Z,99064.19
2018-06-23T05:37:00.114Z,99069.81
2018-06-23T05:39:30.956Z,99072.03
2018-06-23T05:42:01.339Z,99069.69
2018-06-23T05:44:31.682Z,99067.22
2018-06-23T05:47:32.968Z,99067.09
2018-06-23T05:50:09.492Z,99066.33
2018-06-23T05:55:47.329Z,99060.97
2018-06-23T05:58:17.928Z,99063.02
2018-06-23T06:00:48.683Z,99061.34
2018-06-23T06:03:25.898Z,99064.88
2018-06-23T06:05:57.199Z,99064.80
2018-06-23T06:16:52.999Z,99065.23
2018-06-23T06:19:38.822Z,99068.71
2018-06-23T06:22:13.222Z,99072.19
2018-06-23T06:24:45.518Z,99070.08
2018-06-23T06:29:41.079Z,99070.70
2018-06-23T06:32:13.507Z,99064.23
2018-06-23T06:34:48.877Z,99068.24
2018-06-23T06:37:24.375Z,99066.58
2018-06-23T06:39:53.950Z,99067.61
2018-06-23T06:42:23.684Z,99073.01
2018-06-23T06:45:01.600Z,99074.17
2018-06-23T06:47:31.773Z,99072.34
2018-06-23T06:50:01.288Z,99071.48
2018-06-23T06:52:31.248Z,99078.90
2018-06-23T06:55:00.843Z,99080.98
2018-06-23T06:57:31.495Z,99067.81
2018-06-23T07:00:01.356Z,99073.80
2018-06-23T07:02:31.221Z,99076.46
2018-06-23T07:05:01.196Z,99067.97
2018-06-23T07:07:31.423Z,99071.69
2018-06-23T07:10:01.122Z,99070.95
2018-06-23T07:12:30.932Z,99063.83
2018-06-23T07:15:00.587Z,99061.46
2018-06-23T07:17:30.385Z,99060.44
2018-06-23T07:19:59.912Z,99063.27
2018-06-23T07:22:29.909Z,99058.86
2018-06-23T07:24:59.772Z,99060.30
2018-06-23T07:27:29.395Z,99057.39
2018-06-23T07:29:58.859Z,99056.67
2018-06-23T07:32:47.140Z,99060.30
2018-06-23T07:35:16.812Z,99054.55
2018-06-23T07:37:46.482Z,99061.06
2018-06-23T07:40:16.468Z,99059.73
2018-06-23T07:42:46.114Z,99067.84
2018-06-23T07:45:15.782Z,99058.56
2018-06-23T07:47:45.542Z,99069.05
2018-06-23T07:50:15.041Z,99062.95
2018-06-23T07:52:45.233Z,99061.03
2018-06-23T07:55:14.765Z,99057.80
2018-06-23T07:57:44.821Z,99058.48
2018-06-23T08:00:14.612Z,99049.34
2018-06-23T08:02:44.211Z,99050.69
2018-06-23T08:05:13.809Z,99052.61
2018-06-23T08:07:45.822Z,99051.08
2018-06-23T08:10:15.557Z,99046.48
2018-06-23T08:12:44.994Z,99040.84
2018-06-23T08:15:14.488Z,99042.94
2018-06-23T08:17:43.894Z,99035.92
2018-06-23T08:20:13.712Z,99033.53
2018-06-23T08:22:52.830Z,99029.83
2018-06-23T08:26:12.637Z,99040.52
2018-06-23T08:28:47.866Z,99050.28
2018-06-23T08:31:17.724Z,99049.23
2018-06-23T08:33:47.528Z,99042.05
2018-06-23T08:36:17.146Z,99041.06
2018-06-23T08:38:46.905Z,99039.12
2018-06-23T08:41:17.307Z,99034.33
2018-06-23T08:43:47.511Z,99034.40
2018-06-23T08:46:17.424Z,99039.41
2018-06-23T08:48:47.281Z,99035.16
2018-06-23T08:51:19.949Z,99042.61
2018-06-23T08:53:50.711Z,99043.18
2018-06-23T08:56:21.058Z,99033.52
2018-06-23T08:58:50.524Z,99046.23
2018-06-23T09:01:19.924Z,99049.73
2018-06-23T09:03:50.460Z,99050.20
2018-06-23T09:06:19.937Z,99042.26
2018-06-23T09:08:49.625Z,99050.81
2018-06-23T09:11:19.143Z,99048.49
2018-06-23T09:13:48.635Z,99038.53
2018-06-23T09:16:18.126Z,99057.96
2018-06-23T09:18:48.112Z,99052.23
2018-06-23T09:21:17.843Z,99052.61
2018-06-23T09:23:48.253Z,99041.39
2018-06-23T09:26:19.880Z,99050.10
2018-06-23T09:28:52.522Z,99048.06
2018-06-23T09:31:22.333Z,99054.02
2018-06-23T09:33:55.602Z,99051.05
2018-06-23T09:43:18.428Z,99039.16
2018-06-23T09:45:48.695Z,99036.20
2018-06-23T09:48:20.263Z,99039.32
2018-06-23T09:50:50.032Z,99044.54
2018-06-23T09:53:19.549Z,99053.83
2018-06-23T09:55:51.008Z,99055.77
2018-06-23T09:58:21.509Z,99045.96
2018-06-23T10:00:51.160Z,99055.75
2018-06-23T10:03:23.219Z,99055.09
2018-06-23T10:05:53.600Z,99051.83
2018-06-23T10:08:23.467Z,99053.97
2018-06-23T10:10:56.127Z,99054.80
2018-06-23T10:13:27.190Z,99049.75
2018-06-23T10:15:59.264Z,99049.91
2018-06-23T10:18:28.977Z,99049.86
2018-06-23T10:20:59.221Z,99052.09
2018-06-23T10:23:28.847Z,99053.94
2018-06-23T10:25:58.913Z,99050.44
2018-06-23T10:28:28.564Z,99055.89
2018-06-23T10:30:58.601Z,99057.21
2018-06-23T10:33:28.360Z,99049.24
2018-06-23T10:35:58.050Z,99047.83
2018-06-23T10:38:27.924Z,99046.28
2018-06-23T10:40:57.473Z,99039.34
2018-06-23T10:43:26.925Z,99053.67
2018-06-23T10:45:56.455Z,99049.38
2018-06-23T10:48:26.477Z,99051.13
2018-06-23T10:53:15.329Z,99056.63
2018-06-23T10:55:44.993Z,99063.59
2018-06-23T10:58:16.092Z,99054.16
2018-06-23T11:00:45.664Z,99059.29
2018-06-23T11:03:19.139Z,99055.37
2018-06-23T11:05:49.733Z,99052.66
2018-06-23T11:08:19.561Z,99062.50
2018-06-23T11:10:49.362Z,99058.89
2018-06-23T11:13:20.951Z,99043.97
2018-06-23T11:15:55.105Z,99034.57
2018-06-23T11:18:24.724Z,99042.88
2018-06-23T11:20:56.440Z,99041.27
2018-06-23T11:23:25.953Z,99031.31
2018-06-23T11:25:55.556Z,99029.12
2018-06-23T11:28:25.515Z,99022.53
2018-06-23T11:30:55.186Z,99026.66
2018-06-23T11:33:25.132Z,99033.20
2018-06-23T11:35:56.244Z,99024.02
2018-06-23T11:38:26.454Z,99024.07
2018-06-23T11:40:56.163Z,99021.02
2018-06-23T11:43:25.958Z,99025.72
2018-06-23T11:45:57.917Z,99025.79
2018-06-23T11:48:27.475Z,99016.15
2018-06-23T11:50:57.677Z,99020.42
2018-06-23T11:53:27.248Z,99029.75
2018-06-23T11:55:57.010Z,99018.92
2018-06-23T11:58:27.490Z,99015.93
2018-06-23T12:00:57.770Z,99015.34
2018-06-23T12:03:27.619Z,99021.52
2018-06-23T12:05:57.686Z,99024.63
2018-06-23T12:08:29.961Z,99017.41
2018-06-23T12:11:00.350Z,99020.51
2018-06-23T12:13:30.170Z,99002.83
2018-06-23T12:15:59.998Z,98991.30
2018-06-23T12:19:17.223Z,98989.28
2018-06-23T12:21:51.394Z,98981.11
2018-06-23T12:27:18.177Z,98966.98
2018-06-23T12:29:47.881Z,98966.38
2018-06-23T12:32:17.750Z,98962.14
2018-06-23T12:34:47.983Z,98967.48
2018-06-23T12:37:17.611Z,98967.11
2018-06-23T12:39:47.314Z,98955.70
2018-06-23T12:42:17.749Z,98955.68
2018-06-23T12:44:49.097Z,98945.73
2018-06-23T12:47:18.890Z,98952.16
2018-06-23T12:49:48.515Z,98946.72
2018-06-23T12:52:19.334Z,98955.55
2018-06-23T12:54:51.293Z,98949.24
2018-06-23T12:57:22.473Z,98955.95
2018-06-23T12:59:53.258Z,98945.88
2018-06-23T13:02:23.055Z,98949.80
2018-06-23T13:04:52.589Z,98946.61
2018-06-23T13:07:25.790Z,98931.25
2018-06-23T13:09:56.728Z,98939.02
2018-06-23T13:12:28.512Z,98934.12
2018-06-23T13:15:05.485Z,98936.39
2018-06-23T13:17:41.345Z,98933.67
2018-06-23T13:20:13.520Z,98930.36
2018-06-23T13:22:50.219Z,98924.48
2018-06-23T13:25:20.008Z,98937.61
2018-06-23T13:27:50.441Z,98929.11
2018-06-23T13:30:20.528Z,98931.11
2018-06-23T13:32:50.369Z,98912.30
2018-06-23T13:35:20.391Z,98912.97
2018-06-23T13:37:49.960Z,98914.28
2018-06-23T13:40:20.080Z,98909.23
2018-06-23T13:42:52.307Z,98910.55
2018-06-23T13:45:22.127Z,98905.80
2018-06-23T13:54:01.059Z,98907.52
2018-06-23T13:56:30.731Z,98899.42
2018-06-23T13:59:00.371Z,98904.27
2018-06-23T14:01:30.109Z,98896.47
2018-06-23T14:04:01.254Z,98893.92
2018-06-23T14:06:33.454Z,98893.49
2018-06-23T14:09:03.292Z,98897.16
2018-06-23T14:11:32.755Z,98897.69
2018-06-23T14:14:02.840Z,98904.09
2018-06-23T14:16:32.702Z,98907.49
2018-06-23T14:19:02.377Z,98905.48
2018-06-23T14:21:32.501Z,98901.86
2018-06-23T14:24:02.421Z,98897.98
2018-06-23T14:26:33.029Z,98894.34
2018-06-23T14:29:03.060Z,98872.67
2018-06-23T14:31:33.529Z,98889.57
2018-06-23T14:34:03.319Z,98895.98
2018-06-23T14:36:34.728Z,98881.97
2018-06-23T14:39:09.328Z,98879.49
2018-06-23T14:41:43.504Z,98883.49
2018-06-23T14:44:14.164Z,98887.48
2018-06-23T14:46:48.518Z,98881.45
2018-06-23T14:50:13.533Z,98880.98
2018-06-23T14:52:43.048Z,98884.65
2018-06-23T14:55:13.450Z,98872.98
2018-06-23T14:57:44.450Z,98883.80
2018-06-23T15:00:14.310Z,98872.08
2018-06-23T15:02:44.080Z,98886.48
2018-06-23T15:05:14.360Z,98882.69
2018-06-23T15:07:45.618Z,98869.06
2018-06-23T15:10:27.031Z,98880.77
2018-06-23T15:13:12.033Z,98857.22
2018-06-23T15:15:44.993Z,98864.42
2018-06-23T15:18:16.153Z,98862.72
2018-06-23T15:20:51.595Z,98848.00
2018-06-23T15:23:25.903Z,98854.25
2018-06-23T15:25:56.124Z,98854.95
2018-06-23T15:28:26.932Z,98867.02
2018-06-23T15:31:00.680Z,98849.59
2018-06-23T15:33:30.256Z,98846.11
2018-06-23T15:35:59.859Z,98851.55
2018-06-23T15:38:29.320Z,98846.41
2018-06-23T15:41:03.766Z,98843.56
2018-06-23T15:43:34.627Z,98834.23
2018-06-23T15:46:04.528Z,98827.98
2018-06-23T15:48:49.678Z,98830.16
2018-06-23T15:51:19.563Z,98822.00
2018-06-23T15:53:51.734Z,98825.98
2018-06-23T15:56:21.458Z,98823.31
2018-06-23T15:58:52.596Z,98828.77
2018-06-23T16:01:25.414Z,98825.03
2018-06-23T16:03:57.564Z,98833.60
2018-06-23T16:06:27.960Z,98830.94
2018-06-23T16:08:58.054Z,98820.11
2018-06-23T16:11:28.060Z,98821.28
2018-06-23T16:13:57.616Z,98818.85
2018-06-23T16:16:27.158Z,98816.98
2018-06-23T16:18:56.691Z,98819.34
2018-06-23T16:21:26.127Z,98818.36
2018-06-23T17:00:36.924Z,98791.48
2018-06-23T17:03:06.361Z,98792.03
2018-06-23T17:05:35.918Z,98791.31
2018-06-23T17:08:05.532Z,98788.06
2018-06-23T17:10:34.970Z,98787.52
2018-06-23T17:13:04.634Z,98789.27
2018-06-23T17:15:34.045Z,98785.40
2018-06-23T17:18:05.089Z,98786.97
2018-06-23T17:20:34.599Z,98784.11
2018-06-23T17:23:04.706Z,98786.34
2018-06-23T17:25:34.120Z,98795.96
2018-06-23T17:28:04.786Z,98789.19
2018-06-23T17:30:34.829Z,98794.95
2018-06-23T17:33:04.680Z,98789.55
2018-06-23T17:35:37.723Z,98786.47
2018-06-23T17:38:08.212Z,98790.62
2018-06-23T17:40:41.095Z,98790.67
2018-06-23T17:43:10.875Z,98786.16
2018-06-23T17:45:40.808Z,98788.59
2018-06-23T17:48:10.407Z,98786.56
2018-06-23T17:50:40.136Z,98794.79
2018-06-23T17:53:09.899Z,98791.94
2018-06-23T17:55:40.616Z,98789.55
2018-06-23T17:58:14.035Z,98799.69
2018-06-23T18:00:44.224Z,98796.41
2018-06-23T18:03:13.880Z,98799.30
2018-06-23T18:05:43.349Z,98800.14
2018-06-23T18:08:13.103Z,98800.84
2018-06-23T18:10:42.817Z,98786.12
2018-06-23T18:13:12.778Z,98796.80
2018-06-23T18:15:42.589Z,98806.97
2018-06-23T18:21:16.558Z,98810.88
2018-06-23T18:23:47.553Z,98801.49
2018-06-23T18:26:19.244Z,98807.90
2018-06-23T18:28:52.818Z,98810.18
2018-06-23T18:31:27.249Z,98811.09
2018-06-23T18:33:58.608Z,98816.62
2018-06-23T18:36:28.360Z,98809.78
2018-06-23T18:39:02.658Z,98804.53
2018-06-23T18:41:32.437Z,98811.41
2018-06-23T18:44:04.076Z,98806.17
2018-06-23T18:46:40.231Z,98807.27
2018-06-23T18:49:10.296Z,98810.13
2018-06-23T18:51:41.401Z,98812.81
2018-06-23T18:54:14.153Z,98810.88
2018-06-23T18:56:48.053Z,98818.45
2018-06-23T18:59:26.624Z,98815.97
2018-06-23T19:04:55.771Z,98817.20
2018-06-23T19:07:31.313Z,98815.61
2018-06-23T19:10:07.495Z,98814.66
2018-06-23T19:12:38.609Z,98817.55
2018-06-23T19:15:09.166Z,98818.74
2018-06-23T19:17:42.414Z,98823.22
2018-06-23T19:20:24.162Z,98823.31
2018-06-23T19:22:57.335Z,98825.25
2018-06-23T19:25:27.602Z,98830.64
2018-06-23T19:28:00.339Z,98826.78
2018-06-23T19:34:02.004Z,98832.19
2018-06-23T19:36:37.079Z,98831.15
2018-06-23T19:39:13.214Z,98837.97
2018-06-23T19:41:48.935Z,98829.83
2018-06-23T19:44:19.211Z,98834.23
2018-06-23T19:46:49.208Z,98838.06
2018-06-23T19:55:05.571Z,98834.91
2018-06-23T19:57:40.122Z,98845.25
2018-06-23T20:00:13.947Z,98842.20
2018-06-23T20:02:48.332Z,98843.99
2018-06-23T20:05:18.643Z,98841.78
2018-06-23T20:07:52.009Z,98843.08
2018-06-23T20:10:23.786Z,98844.64
2018-06-23T20:12:59.308Z,98838.25
2018-06-23T20:15:31.387Z,98842.73
2018-06-23T20:18:07.468Z,98851.88
2018-06-23T20:20:38.150Z,98845.89
2018-06-23T20:23:08.236Z,98846.97
2018-06-23T20:25:39.018Z,98855.83
2018-06-23T20:40:04.039Z,98849.63
2018-06-23T20:42:35.912Z,98845.89
2018-06-23T20:45:15.562Z,98849.03
2018-06-23T20:47:48.249Z,98848.69
2018-06-23T20:53:00.314Z,98857.59
2018-06-23T20:55:32.619Z,98851.71
2018-06-23T20:58:06.392Z,98849.42
2018-06-23T21:15:54.209Z,98787.67
2018-06-23T21:24:48.730Z,98849.15
2018-06-23T21:27:25.853Z,98844.13
2018-06-23T21:29:56.584Z,98851.78
2018-06-23T21:32:30.624Z,98845.62
2018-06-23T21:35:10.842Z,98846.09
2018-06-23T21:37:47.735Z,98845.47
2018-06-23T21:40:36.522Z,98844.70
2018-06-23T21:43:26.004Z,98837.30
2018-06-23T21:59:39.187Z,98845.33
2018-06-23T22:02:28.474Z,98841.25
2018-06-23T22:05:08.429Z,98843.33
2018-06-23T22:07:49.850Z,98836.41
2018-06-23T22:10:37.425Z,98840.62
2018-06-23T22:27:21.077Z,98830.31
2018-06-23T22:29:58.601Z,98836.43
2018-06-23T22:32:37.261Z,98833.31
2018-06-23T22:35:10.891Z,98835.31
2018-06-23T23:41:07.922Z,98817.61
2018-06-23T23:43:46.007Z,98816.03
2018-06-23T23:46:20.808Z,98815.16
2018-06-23T23:48:53.308Z,98808.79
2018-06-23T23:51:26.167Z,98810.20
2018-06-23T23:53:56.554Z,98807.95
2018-06-23T23:56:29.088Z,98807.47
2018-06-23T23:59:05.051Z,98801.67
